sensor_id;sensor_type;location;lat;lon;timestamp;temperature;humidity
11744;DHT22;5929;51.906;7.674;2022-12-11T00:01:19;0.80;99.90
11744;DHT22;5929;51.906;7.674;2022-12-11T00:03:47;0.80;99.90
11744;DHT22;5929;51.906;7.674;2022-12-11T00:06:17;0.80;99.90
11744;DHT22;5929;51.906;7.674;2022-12-11T00:08:47;0.80;99.90
11744;DHT22;5929;51.906;7.674;2022-12-11T00:11:17;0.80;99.90
11744;DHT22;5929;51.906;7.674;2022-12-11T00:13:44;0.80;99.90
11744;DHT22;5929;51.906;7.674;2022-12-11T00:16:11;0.70;99.90
11744;DHT22;5929;51.906;7.674;2022-12-11T00:18:38;0.70;99.90
11744;DHT22;5929;51.906;7.674;2022-12-11T00:21:07;0.70;99.90
11744;DHT22;5929;51.906;7.674;2022-12-11T00:23:37;0.70;99.90
11744;DHT22;5929;51.906;7.674;2022-12-11T00:26:05;0.70;99.90
11744;DHT22;5929;51.906;7.674;2022-12-11T00:28:33;0.60;99.90
11744;DHT22;5929;51.906;7.674;2022-12-11T00:31:03;0.60;99.90
11744;DHT22;5929;51.906;7.674;2022-12-11T00:33:30;0.60;99.90
11744;DHT22;5929;51.906;7.674;2022-12-11T00:35:57;0.60;99.90
11744;DHT22;5929;51.906;7.674;2022-12-11T00:38:25;0.60;99.90
11744;DHT22;5929;51.906;7.674;2022-12-11T00:40:52;0.60;99.90
11744;DHT22;5929;51.906;7.674;2022-12-11T00:43:18;0.60;99.90
11744;DHT22;5929;51.906;7.674;2022-12-11T00:45:47;0.70;99.90
11744;DHT22;5929;51.906;7.674;2022-12-11T00:48:13;0.70;99.90
11744;DHT22;5929;51.906;7.674;2022-12-11T00:50:40;0.70;99.90
11744;DHT22;5929;51.906;7.674;2022-12-11T00:53:07;0.70;99.90
11744;DHT22;5929;51.906;7.674;2022-12-11T00:55:36;0.70;99.90
11744;DHT22;5929;51.906;7.674;2022-12-11T00:58:03;0.60;99.90
11744;DHT22;5929;51.906;7.674;2022-12-11T01:00:30;0.60;99.90
11744;DHT22;5929;51.906;7.674;2022-12-11T01:02:59;0.60;99.90
11744;DHT22;5929;51.906;7.674;2022-12-11T01:05:26;0.50;99.90
11744;DHT22;5929;51.906;7.674;2022-12-11T01:07:52;0.50;99.90
11744;DHT22;5929;51.906;7.674;2022-12-11T01:10:19;0.50;99.90
11744;DHT22;5929;51.906;7.674;2022-12-11T01:12:50;0.50;99.90
11744;DHT22;5929;51.906;7.674;2022-12-11T01:15:17;0.50;99.90
11744;DHT22;5929;51.906;7.674;2022-12-11T01:17:44;0.50;99.90
11744;DHT22;5929;51.906;7.674;2022-12-11T01:20:12;0.50;99.90
11744;DHT22;5929;51.906;7.674;2022-12-11T01:22:39;0.50;99.90
11744;DHT22;5929;51.906;7.674;2022-12-11T01:25:06;0.50;99.90
11744;DHT22;5929;51.906;7.674;2022-12-11T01:27:34;0.50;99.90
11744;DHT22;5929;51.906;7.674;2022-12-11T01:30:02;0.50;99.90
11744;DHT22;5929;51.906;7.674;2022-12-11T01:32:30;0.40;99.90
11744;DHT22;5929;51.906;7.674;2022-12-11T01:34:56;0.50;99.90
11744;DHT22;5929;51.906;7.674;2022-12-11T01:37:24;0.50;99.90
11744;DHT22;5929;51.906;7.674;2022-12-11T01:39:51;0.40;99.90
11744;DHT22;5929;51.906;7.674;2022-12-11T01:42:19;0.40;99.90
11744;DHT22;5929;51.906;7.674;2022-12-11T01:47:51;0.40;99.90
11744;DHT22;5929;51.906;7.674;2022-12-11T01:50:19;0.30;99.90
11744;DHT22;5929;51.906;7.674;2022-12-11T01:52:48;0.30;99.90
11744;DHT22;5929;51.906;7.674;2022-12-11T01:55:16;0.30;99.90
11744;DHT22;5929;51.906;7.674;2022-12-11T01:57:46;0.30;99.90
11744;DHT22;5929;51.906;7.674;2022-12-11T02:00:14;0.40;99.90
11744;DHT22;5929;51.906;7.674;2022-12-11T02:02:41;0.30;99.90
11744;DHT22;5929;51.906;7.674;2022-12-11T02:05:08;0.40;99.90
11744;DHT22;5929;51.906;7.674;2022-12-11T02:07:38;0.30;99.90
11744;DHT22;5929;51.906;7.674;2022-12-11T02:10:09;0.30;99.90
11744;DHT22;5929;51.906;7.674;2022-12-11T02:12:42;0.40;99.90
11744;DHT22;5929;51.906;7.674;2022-12-11T02:15:16;0.40;99.90
11744;DHT22;5929;51.906;7.674;2022-12-11T02:17:51;0.40;99.90
11744;DHT22;5929;51.906;7.674;2022-12-11T02:20:22;0.30;99.90
11744;DHT22;5929;51.906;7.674;2022-12-11T02:26:22;0.10;99.90
11744;DHT22;5929;51.906;7.674;2022-12-11T02:28:54;0.10;99.90
11744;DHT22;5929;51.906;7.674;2022-12-11T02:31:25;0.10;99.90
11744;DHT22;5929;51.906;7.674;2022-12-11T02:33:57;0.10;99.90
11744;DHT22;5929;51.906;7.674;2022-12-11T02:36:28;0.10;99.90
11744;DHT22;5929;51.906;7.674;2022-12-11T02:38:56;0.10;99.90
11744;DHT22;5929;51.906;7.674;2022-12-11T02:41:25;0.10;99.90
11744;DHT22;5929;51.906;7.674;2022-12-11T02:43:56;0.10;99.90
11744;DHT22;5929;51.906;7.674;2022-12-11T02:46:24;0.10;99.90
11744;DHT22;5929;51.906;7.674;2022-12-11T02:48:52;0.10;99.90
11744;DHT22;5929;51.906;7.674;2022-12-11T02:51:24;0.10;99.90
11744;DHT22;5929;51.906;7.674;2022-12-11T02:53:54;0.20;99.90
11744;DHT22;5929;51.906;7.674;2022-12-11T02:56:25;0.20;99.90
11744;DHT22;5929;51.906;7.674;2022-12-11T02:58:59;0.10;99.90
11744;DHT22;5929;51.906;7.674;2022-12-11T03:01:27;0.20;99.90
11744;DHT22;5929;51.906;7.674;2022-12-11T03:03:54;0.10;99.90
11744;DHT22;5929;51.906;7.674;2022-12-11T03:06:26;0.10;99.90
11744;DHT22;5929;51.906;7.674;2022-12-11T03:08:55;0.10;99.90
11744;DHT22;5929;51.906;7.674;2022-12-11T03:11:25;0.10;99.90
11744;DHT22;5929;51.906;7.674;2022-12-11T03:13:52;0.10;99.90
11744;DHT22;5929;51.906;7.674;2022-12-11T03:16:25;0.10;99.90
11744;DHT22;5929;51.906;7.674;2022-12-11T03:19:01;0.20;99.90
11744;DHT22;5929;51.906;7.674;2022-12-11T03:21:35;0.30;99.90
11744;DHT22;5929;51.906;7.674;2022-12-11T03:24:08;0.40;99.90
11744;DHT22;5929;51.906;7.674;2022-12-11T03:26:39;0.30;99.90
11744;DHT22;5929;51.906;7.674;2022-12-11T03:29:12;0.30;99.90
11744;DHT22;5929;51.906;7.674;2022-12-11T03:31:44;0.40;99.90
11744;DHT22;5929;51.906;7.674;2022-12-11T03:34:18;0.40;99.90
11744;DHT22;5929;51.906;7.674;2022-12-11T03:36:48;0.30;99.90
11744;DHT22;5929;51.906;7.674;2022-12-11T03:39:19;0.30;99.90
11744;DHT22;5929;51.906;7.674;2022-12-11T03:41:49;0.30;99.90
11744;DHT22;5929;51.906;7.674;2022-12-11T03:44:19;0.30;99.90
11744;DHT22;5929;51.906;7.674;2022-12-11T03:46:49;0.30;99.90
11744;DHT22;5929;51.906;7.674;2022-12-11T03:49:19;0.30;99.90
11744;DHT22;5929;51.906;7.674;2022-12-11T03:51:51;0.30;99.90
11744;DHT22;5929;51.906;7.674;2022-12-11T03:54:20;0.30;99.90
11744;DHT22;5929;51.906;7.674;2022-12-11T03:56:50;0.30;99.90
11744;DHT22;5929;51.906;7.674;2022-12-11T03:59:19;0.30;99.90
11744;DHT22;5929;51.906;7.674;2022-12-11T04:01:47;0.30;99.90
11744;DHT22;5929;51.906;7.674;2022-12-11T04:04:14;0.30;99.90
11744;DHT22;5929;51.906;7.674;2022-12-11T04:06:41;0.40;99.90
11744;DHT22;5929;51.906;7.674;2022-12-11T04:09:08;0.50;99.90
11744;DHT22;5929;51.906;7.674;2022-12-11T04:11:34;0.50;99.90
11744;DHT22;5929;51.906;7.674;2022-12-11T04:14:02;0.60;99.90
11744;DHT22;5929;51.906;7.674;2022-12-11T04:16:48;0.70;99.90
11744;DHT22;5929;51.906;7.674;2022-12-11T04:19:15;0.60;99.90
11744;DHT22;5929;51.906;7.674;2022-12-11T04:21:59;0.60;99.90
11744;DHT22;5929;51.906;7.674;2022-12-11T04:25:01;0.50;99.90
11744;DHT22;5929;51.906;7.674;2022-12-11T04:27:27;0.50;99.90
11744;DHT22;5929;51.906;7.674;2022-12-11T04:30:15;0.60;99.90
11744;DHT22;5929;51.906;7.674;2022-12-11T04:32:43;0.50;99.90
11744;DHT22;5929;51.906;7.674;2022-12-11T04:35:11;0.50;99.90
11744;DHT22;5929;51.906;7.674;2022-12-11T04:37:38;0.50;99.90
11744;DHT22;5929;51.906;7.674;2022-12-11T04:40:07;0.50;99.90
11744;DHT22;5929;51.906;7.674;2022-12-11T04:42:35;0.50;99.90
11744;DHT22;5929;51.906;7.674;2022-12-11T04:45:02;0.50;99.90
11744;DHT22;5929;51.906;7.674;2022-12-11T04:47:29;0.60;99.90
11744;DHT22;5929;51.906;7.674;2022-12-11T04:49:57;0.60;99.90
11744;DHT22;5929;51.906;7.674;2022-12-11T04:52:24;0.60;99.90
11744;DHT22;5929;51.906;7.674;2022-12-11T04:54:51;0.60;99.90
11744;DHT22;5929;51.906;7.674;2022-12-11T04:57:20;0.60;99.90
11744;DHT22;5929;51.906;7.674;2022-12-11T04:59:47;0.70;99.90
11744;DHT22;5929;51.906;7.674;2022-12-11T05:02:14;0.70;99.90
11744;DHT22;5929;51.906;7.674;2022-12-11T05:04:41;0.70;99.90
11744;DHT22;5929;51.906;7.674;2022-12-11T05:07:09;0.70;99.90
11744;DHT22;5929;51.906;7.674;2022-12-11T05:09:36;0.80;99.90
11744;DHT22;5929;51.906;7.674;2022-12-11T05:12:03;0.80;99.90
11744;DHT22;5929;51.906;7.674;2022-12-11T05:14:30;0.90;99.90
11744;DHT22;5929;51.906;7.674;2022-12-11T05:16:57;0.80;99.90
11744;DHT22;5929;51.906;7.674;2022-12-11T05:19:24;0.80;99.90
11744;DHT22;5929;51.906;7.674;2022-12-11T05:21:51;0.70;99.90
11744;DHT22;5929;51.906;7.674;2022-12-11T05:24:20;0.80;99.90
11744;DHT22;5929;51.906;7.674;2022-12-11T05:26:46;0.80;99.90
11744;DHT22;5929;51.906;7.674;2022-12-11T05:29:16;0.80;99.90
11744;DHT22;5929;51.906;7.674;2022-12-11T05:31:42;0.80;99.90
11744;DHT22;5929;51.906;7.674;2022-12-11T05:34:09;0.80;99.90
11744;DHT22;5929;51.906;7.674;2022-12-11T05:36:36;0.70;99.90
11744;DHT22;5929;51.906;7.674;2022-12-11T05:39:03;0.70;99.90
11744;DHT22;5929;51.906;7.674;2022-12-11T05:41:31;0.70;99.90
11744;DHT22;5929;51.906;7.674;2022-12-11T05:43:58;0.70;99.90
11744;DHT22;5929;51.906;7.674;2022-12-11T05:46:27;0.70;99.90
11744;DHT22;5929;51.906;7.674;2022-12-11T05:48:57;0.60;99.90
11744;DHT22;5929;51.906;7.674;2022-12-11T05:51:24;0.70;99.90
11744;DHT22;5929;51.906;7.674;2022-12-11T05:53:52;0.70;99.90
11744;DHT22;5929;51.906;7.674;2022-12-11T05:56:21;0.70;99.90
11744;DHT22;5929;51.906;7.674;2022-12-11T05:58:49;0.70;99.90
11744;DHT22;5929;51.906;7.674;2022-12-11T06:01:18;0.70;99.90
11744;DHT22;5929;51.906;7.674;2022-12-11T06:03:46;0.80;99.90
11744;DHT22;5929;51.906;7.674;2022-12-11T06:06:13;0.80;99.90
11744;DHT22;5929;51.906;7.674;2022-12-11T06:08:40;0.80;99.90
11744;DHT22;5929;51.906;7.674;2022-12-11T06:11:07;0.80;99.90
11744;DHT22;5929;51.906;7.674;2022-12-11T06:13:34;0.80;99.90
11744;DHT22;5929;51.906;7.674;2022-12-11T06:16:04;0.80;99.90
11744;DHT22;5929;51.906;7.674;2022-12-11T06:18:33;0.80;99.90
11744;DHT22;5929;51.906;7.674;2022-12-11T06:21:00;0.80;99.90
11744;DHT22;5929;51.906;7.674;2022-12-11T06:23:27;0.80;99.90
11744;DHT22;5929;51.906;7.674;2022-12-11T06:25:54;0.70;99.90
11744;DHT22;5929;51.906;7.674;2022-12-11T06:28:21;0.70;99.90
11744;DHT22;5929;51.906;7.674;2022-12-11T06:30:48;0.80;99.90
11744;DHT22;5929;51.906;7.674;2022-12-11T06:33:16;0.90;99.90
11744;DHT22;5929;51.906;7.674;2022-12-11T06:35:43;0.80;99.90
11744;DHT22;5929;51.906;7.674;2022-12-11T06:38:10;0.90;99.90
11744;DHT22;5929;51.906;7.674;2022-12-11T06:40:36;0.90;99.90
11744;DHT22;5929;51.906;7.674;2022-12-11T06:43:03;1.00;99.90
11744;DHT22;5929;51.906;7.674;2022-12-11T06:45:30;1.00;99.90
11744;DHT22;5929;51.906;7.674;2022-12-11T06:47:57;1.00;99.90
11744;DHT22;5929;51.906;7.674;2022-12-11T06:50:25;1.00;99.90
11744;DHT22;5929;51.906;7.674;2022-12-11T06:52:52;1.00;99.90
11744;DHT22;5929;51.906;7.674;2022-12-11T06:55:19;1.00;99.90
11744;DHT22;5929;51.906;7.674;2022-12-11T06:57:46;0.90;99.90
11744;DHT22;5929;51.906;7.674;2022-12-11T07:00:14;0.90;99.90
11744;DHT22;5929;51.906;7.674;2022-12-11T07:02:43;0.80;99.90
11744;DHT22;5929;51.906;7.674;2022-12-11T07:05:10;0.80;99.90
11744;DHT22;5929;51.906;7.674;2022-12-11T07:07:38;0.80;99.90
11744;DHT22;5929;51.906;7.674;2022-12-11T07:10:08;0.90;99.90
11744;DHT22;5929;51.906;7.674;2022-12-11T07:12:35;0.90;99.90
11744;DHT22;5929;51.906;7.674;2022-12-11T07:15:03;0.90;99.90
11744;DHT22;5929;51.906;7.674;2022-12-11T07:17:30;0.90;99.90
11744;DHT22;5929;51.906;7.674;2022-12-11T07:19:57;0.90;99.90
11744;DHT22;5929;51.906;7.674;2022-12-11T07:22:24;0.90;99.90
11744;DHT22;5929;51.906;7.674;2022-12-11T07:24:52;0.90;99.90
11744;DHT22;5929;51.906;7.674;2022-12-11T07:27:19;0.90;99.90
11744;DHT22;5929;51.906;7.674;2022-12-11T07:29:45;1.00;99.90
11744;DHT22;5929;51.906;7.674;2022-12-11T07:32:12;0.90;99.90
11744;DHT22;5929;51.906;7.674;2022-12-11T07:34:39;0.90;99.90
11744;DHT22;5929;51.906;7.674;2022-12-11T07:37:09;0.90;99.90
11744;DHT22;5929;51.906;7.674;2022-12-11T07:39:35;0.90;99.90
11744;DHT22;5929;51.906;7.674;2022-12-11T07:42:04;0.90;99.90
11744;DHT22;5929;51.906;7.674;2022-12-11T07:44:30;0.90;99.90
11744;DHT22;5929;51.906;7.674;2022-12-11T07:46:57;0.90;99.90
11744;DHT22;5929;51.906;7.674;2022-12-11T07:49:24;0.80;99.90
11744;DHT22;5929;51.906;7.674;2022-12-11T07:51:51;0.80;99.90
11744;DHT22;5929;51.906;7.674;2022-12-11T07:54:18;0.80;99.90
11744;DHT22;5929;51.906;7.674;2022-12-11T07:56:46;0.80;99.90
11744;DHT22;5929;51.906;7.674;2022-12-11T07:59:14;0.80;99.90
11744;DHT22;5929;51.906;7.674;2022-12-11T08:01:41;0.80;99.90
11744;DHT22;5929;51.906;7.674;2022-12-11T08:04:10;0.90;99.90
11744;DHT22;5929;51.906;7.674;2022-12-11T08:06:40;0.90;99.90
11744;DHT22;5929;51.906;7.674;2022-12-11T08:09:11;0.90;99.90
11744;DHT22;5929;51.906;7.674;2022-12-11T08:11:40;0.90;99.90
11744;DHT22;5929;51.906;7.674;2022-12-11T08:14:07;0.90;99.90
11744;DHT22;5929;51.906;7.674;2022-12-11T08:16:35;0.90;99.90
11744;DHT22;5929;51.906;7.674;2022-12-11T08:19:03;1.00;99.90
11744;DHT22;5929;51.906;7.674;2022-12-11T08:21:30;1.00;99.90
11744;DHT22;5929;51.906;7.674;2022-12-11T08:23:56;1.00;99.90
11744;DHT22;5929;51.906;7.674;2022-12-11T08:26:26;1.00;99.90
11744;DHT22;5929;51.906;7.674;2022-12-11T08:28:56;1.00;99.90
11744;DHT22;5929;51.906;7.674;2022-12-11T08:31:25;1.10;99.90
11744;DHT22;5929;51.906;7.674;2022-12-11T08:33:54;1.00;99.90
11744;DHT22;5929;51.906;7.674;2022-12-11T08:36:22;0.90;99.90
11744;DHT22;5929;51.906;7.674;2022-12-11T08:38:49;1.00;99.90
11744;DHT22;5929;51.906;7.674;2022-12-11T08:41:21;1.00;99.90
11744;DHT22;5929;51.906;7.674;2022-12-11T08:43:48;1.10;99.90
11744;DHT22;5929;51.906;7.674;2022-12-11T08:46:17;1.10;99.90
11744;DHT22;5929;51.906;7.674;2022-12-11T08:48:44;1.10;99.90
11744;DHT22;5929;51.906;7.674;2022-12-11T08:51:14;1.10;99.90
11744;DHT22;5929;51.906;7.674;2022-12-11T08:53:41;1.10;99.90
11744;DHT22;5929;51.906;7.674;2022-12-11T08:56:11;1.10;99.90
11744;DHT22;5929;51.906;7.674;2022-12-11T08:58:38;1.10;99.90
11744;DHT22;5929;51.906;7.674;2022-12-11T09:01:05;1.10;99.90
11744;DHT22;5929;51.906;7.674;2022-12-11T09:03:33;1.10;99.90
11744;DHT22;5929;51.906;7.674;2022-12-11T09:06:03;1.10;99.90
11744;DHT22;5929;51.906;7.674;2022-12-11T09:08:32;1.10;99.90
11744;DHT22;5929;51.906;7.674;2022-12-11T09:11:02;1.20;99.90
11744;DHT22;5929;51.906;7.674;2022-12-11T09:13:29;1.10;99.90
11744;DHT22;5929;51.906;7.674;2022-12-11T09:15:56;1.10;99.90
11744;DHT22;5929;51.906;7.674;2022-12-11T09:18:23;1.10;99.90
11744;DHT22;5929;51.906;7.674;2022-12-11T09:20:57;1.10;99.90
11744;DHT22;5929;51.906;7.674;2022-12-11T09:23:24;1.10;99.90
11744;DHT22;5929;51.906;7.674;2022-12-11T09:25:52;1.20;99.90
11744;DHT22;5929;51.906;7.674;2022-12-11T09:28:19;1.20;99.90
11744;DHT22;5929;51.906;7.674;2022-12-11T09:30:46;1.20;99.90
11744;DHT22;5929;51.906;7.674;2022-12-11T09:33:13;1.20;99.90
11744;DHT22;5929;51.906;7.674;2022-12-11T09:35:39;1.20;99.90
11744;DHT22;5929;51.906;7.674;2022-12-11T09:38:07;1.20;99.90
11744;DHT22;5929;51.906;7.674;2022-12-11T09:40:39;1.20;99.90
11744;DHT22;5929;51.906;7.674;2022-12-11T09:43:16;1.20;99.90
11744;DHT22;5929;51.906;7.674;2022-12-11T09:45:45;1.20;99.90
11744;DHT22;5929;51.906;7.674;2022-12-11T09:48:13;1.20;99.90
11744;DHT22;5929;51.906;7.674;2022-12-11T09:50:44;1.20;99.90
11744;DHT22;5929;51.906;7.674;2022-12-11T09:53:17;1.20;99.90
11744;DHT22;5929;51.906;7.674;2022-12-11T09:55:50;1.20;99.90
11744;DHT22;5929;51.906;7.674;2022-12-11T09:58:25;1.20;99.90
11744;DHT22;5929;51.906;7.674;2022-12-11T10:00:56;1.20;99.90
11744;DHT22;5929;51.906;7.674;2022-12-11T10:03:47;1.20;99.90
11744;DHT22;5929;51.906;7.674;2022-12-11T10:06:24;1.20;99.90
11744;DHT22;5929;51.906;7.674;2022-12-11T10:09:02;1.20;99.90
11744;DHT22;5929;51.906;7.674;2022-12-11T10:11:40;1.20;99.90
11744;DHT22;5929;51.906;7.674;2022-12-11T10:14:18;1.20;99.90
11744;DHT22;5929;51.906;7.674;2022-12-11T10:16:51;1.20;99.90
11744;DHT22;5929;51.906;7.674;2022-12-11T10:19:23;1.20;99.90
11744;DHT22;5929;51.906;7.674;2022-12-11T10:21:52;1.20;99.90
11744;DHT22;5929;51.906;7.674;2022-12-11T10:24:22;1.20;99.90
11744;DHT22;5929;51.906;7.674;2022-12-11T10:26:54;1.30;99.90
11744;DHT22;5929;51.906;7.674;2022-12-11T10:29:23;1.20;99.90
11744;DHT22;5929;51.906;7.674;2022-12-11T10:31:54;1.20;99.90
11744;DHT22;5929;51.906;7.674;2022-12-11T10:34:28;1.20;99.90
11744;DHT22;5929;51.906;7.674;2022-12-11T10:36:57;1.30;99.90
11744;DHT22;5929;51.906;7.674;2022-12-11T10:39:23;1.30;99.90
11744;DHT22;5929;51.906;7.674;2022-12-11T10:41:52;1.30;99.90
11744;DHT22;5929;51.906;7.674;2022-12-11T10:44:20;1.40;99.90
11744;DHT22;5929;51.906;7.674;2022-12-11T10:47:01;1.50;99.90
11744;DHT22;5929;51.906;7.674;2022-12-11T10:49:31;1.50;99.90
11744;DHT22;5929;51.906;7.674;2022-12-11T10:51:58;1.50;99.90
11744;DHT22;5929;51.906;7.674;2022-12-11T10:54:32;1.50;99.90
11744;DHT22;5929;51.906;7.674;2022-12-11T10:57:00;1.50;99.90
11744;DHT22;5929;51.906;7.674;2022-12-11T10:59:34;1.50;99.90
11744;DHT22;5929;51.906;7.674;2022-12-11T11:02:06;1.60;99.90
11744;DHT22;5929;51.906;7.674;2022-12-11T11:04:43;1.50;99.90
11744;DHT22;5929;51.906;7.674;2022-12-11T11:07:13;1.50;99.90
11744;DHT22;5929;51.906;7.674;2022-12-11T11:09:41;1.60;99.90
11744;DHT22;5929;51.906;7.674;2022-12-11T11:12:20;1.60;99.90
11744;DHT22;5929;51.906;7.674;2022-12-11T11:14:58;1.60;99.90
11744;DHT22;5929;51.906;7.674;2022-12-11T11:17:26;1.60;99.90
11744;DHT22;5929;51.906;7.674;2022-12-11T11:19:53;1.70;99.90
11744;DHT22;5929;51.906;7.674;2022-12-11T11:22:21;1.60;99.90
11744;DHT22;5929;51.906;7.674;2022-12-11T11:24:53;1.70;99.90
11744;DHT22;5929;51.906;7.674;2022-12-11T11:27:27;1.70;99.90
11744;DHT22;5929;51.906;7.674;2022-12-11T11:29:56;1.70;99.90
11744;DHT22;5929;51.906;7.674;2022-12-11T11:32:30;1.60;99.90
11744;DHT22;5929;51.906;7.674;2022-12-11T11:35:10;1.60;99.90
11744;DHT22;5929;51.906;7.674;2022-12-11T11:37:44;1.60;99.90
11744;DHT22;5929;51.906;7.674;2022-12-11T11:40:16;1.70;99.90
11744;DHT22;5929;51.906;7.674;2022-12-11T11:42:49;1.70;99.90
11744;DHT22;5929;51.906;7.674;2022-12-11T11:45:21;1.80;99.90
11744;DHT22;5929;51.906;7.674;2022-12-11T11:47:57;1.80;99.90
11744;DHT22;5929;51.906;7.674;2022-12-11T11:50:27;1.70;99.90
11744;DHT22;5929;51.906;7.674;2022-12-11T11:53:01;1.70;99.90
11744;DHT22;5929;51.906;7.674;2022-12-11T11:55:36;1.70;99.90
11744;DHT22;5929;51.906;7.674;2022-12-11T11:58:11;1.70;99.90
11744;DHT22;5929;51.906;7.674;2022-12-11T12:00:39;1.70;99.90
11744;DHT22;5929;51.906;7.674;2022-12-11T12:03:10;1.70;99.90
11744;DHT22;5929;51.906;7.674;2022-12-11T12:05:42;1.70;99.90
11744;DHT22;5929;51.906;7.674;2022-12-11T12:08:17;1.70;99.90
11744;DHT22;5929;51.906;7.674;2022-12-11T12:10:55;1.70;99.90
11744;DHT22;5929;51.906;7.674;2022-12-11T12:13:30;1.70;99.90
11744;DHT22;5929;51.906;7.674;2022-12-11T12:16:02;1.70;99.90
11744;DHT22;5929;51.906;7.674;2022-12-11T12:18:39;1.70;99.90
11744;DHT22;5929;51.906;7.674;2022-12-11T12:21:15;1.70;99.90
11744;DHT22;5929;51.906;7.674;2022-12-11T12:23:55;1.70;99.90
11744;DHT22;5929;51.906;7.674;2022-12-11T12:26:27;1.70;99.90
11744;DHT22;5929;51.906;7.674;2022-12-11T12:29:04;1.70;99.90
11744;DHT22;5929;51.906;7.674;2022-12-11T12:31:44;1.70;99.90
11744;DHT22;5929;51.906;7.674;2022-12-11T12:34:23;1.60;99.90
11744;DHT22;5929;51.906;7.674;2022-12-11T12:36:59;1.60;99.90
11744;DHT22;5929;51.906;7.674;2022-12-11T12:39:36;1.60;99.90
11744;DHT22;5929;51.906;7.674;2022-12-11T12:42:14;1.50;99.90
11744;DHT22;5929;51.906;7.674;2022-12-11T12:44:51;1.50;99.90
11744;DHT22;5929;51.906;7.674;2022-12-11T12:47:23;1.50;99.90
11744;DHT22;5929;51.906;7.674;2022-12-11T12:49:54;1.50;99.90
11744;DHT22;5929;51.906;7.674;2022-12-11T12:52:28;1.60;99.90
11744;DHT22;5929;51.906;7.674;2022-12-11T12:54:59;1.60;99.90
11744;DHT22;5929;51.906;7.674;2022-12-11T12:57:46;1.70;99.90
11744;DHT22;5929;51.906;7.674;2022-12-11T13:00:25;1.70;99.90
11744;DHT22;5929;51.906;7.674;2022-12-11T13:02:53;1.70;99.90
11744;DHT22;5929;51.906;7.674;2022-12-11T13:05:24;1.60;99.90
11744;DHT22;5929;51.906;7.674;2022-12-11T13:07:54;1.60;99.90
11744;DHT22;5929;51.906;7.674;2022-12-11T13:10:32;1.70;99.90
11744;DHT22;5929;51.906;7.674;2022-12-11T13:13:01;1.60;99.90
11744;DHT22;5929;51.906;7.674;2022-12-11T13:15:32;1.50;99.90
11744;DHT22;5929;51.906;7.674;2022-12-11T13:18:01;1.60;99.90
11744;DHT22;5929;51.906;7.674;2022-12-11T13:20:31;1.60;99.90
11744;DHT22;5929;51.906;7.674;2022-12-11T13:23:16;1.60;99.90
11744;DHT22;5929;51.906;7.674;2022-12-11T13:25:51;1.60;99.90
11744;DHT22;5929;51.906;7.674;2022-12-11T13:28:25;1.60;99.90
11744;DHT22;5929;51.906;7.674;2022-12-11T13:30:58;1.60;99.90
11744;DHT22;5929;51.906;7.674;2022-12-11T13:33:25;1.60;99.90
11744;DHT22;5929;51.906;7.674;2022-12-11T13:36:27;1.60;99.90
11744;DHT22;5929;51.906;7.674;2022-12-11T13:38:57;1.60;99.90
11744;DHT22;5929;51.906;7.674;2022-12-11T13:41:26;1.60;99.90
11744;DHT22;5929;51.906;7.674;2022-12-11T13:43:53;1.60;99.90
11744;DHT22;5929;51.906;7.674;2022-12-11T13:46:26;1.60;99.90
11744;DHT22;5929;51.906;7.674;2022-12-11T13:48:55;1.60;99.90
11744;DHT22;5929;51.906;7.674;2022-12-11T13:51:27;1.60;99.90
11744;DHT22;5929;51.906;7.674;2022-12-11T13:54:02;1.60;99.90
11744;DHT22;5929;51.906;7.674;2022-12-11T13:56:29;1.60;99.90
11744;DHT22;5929;51.906;7.674;2022-12-11T13:58:56;1.60;99.90
11744;DHT22;5929;51.906;7.674;2022-12-11T14:01:25;1.60;99.90
11744;DHT22;5929;51.906;7.674;2022-12-11T14:03:55;1.50;99.90
11744;DHT22;5929;51.906;7.674;2022-12-11T14:06:23;1.50;99.90
11744;DHT22;5929;51.906;7.674;2022-12-11T14:08:54;1.50;99.90
11744;DHT22;5929;51.906;7.674;2022-12-11T14:11:24;1.50;99.90
11744;DHT22;5929;51.906;7.674;2022-12-11T14:13:54;1.50;99.90
11744;DHT22;5929;51.906;7.674;2022-12-11T14:16:23;1.60;99.90
11744;DHT22;5929;51.906;7.674;2022-12-11T14:18:52;1.60;99.90
11744;DHT22;5929;51.906;7.674;2022-12-11T14:21:21;1.50;99.90
11744;DHT22;5929;51.906;7.674;2022-12-11T14:23:52;1.50;99.90
11744;DHT22;5929;51.906;7.674;2022-12-11T14:26:21;1.50;99.90
11744;DHT22;5929;51.906;7.674;2022-12-11T14:28:49;1.50;99.90
11744;DHT22;5929;51.906;7.674;2022-12-11T14:31:22;1.50;99.90
11744;DHT22;5929;51.906;7.674;2022-12-11T14:33:53;1.50;99.90
11744;DHT22;5929;51.906;7.674;2022-12-11T14:36:21;1.60;99.90
11744;DHT22;5929;51.906;7.674;2022-12-11T14:38:56;1.50;99.90
11744;DHT22;5929;51.906;7.674;2022-12-11T14:41:28;1.40;99.90
11744;DHT22;5929;51.906;7.674;2022-12-11T14:43:58;1.50;99.90
11744;DHT22;5929;51.906;7.674;2022-12-11T14:46:31;1.50;99.90
11744;DHT22;5929;51.906;7.674;2022-12-11T14:49:01;1.50;99.90
11744;DHT22;5929;51.906;7.674;2022-12-11T14:51:34;1.40;99.90
11744;DHT22;5929;51.906;7.674;2022-12-11T14:54:06;1.40;99.90
11744;DHT22;5929;51.906;7.674;2022-12-11T14:56:36;1.50;99.90
11744;DHT22;5929;51.906;7.674;2022-12-11T14:59:05;1.50;99.90
11744;DHT22;5929;51.906;7.674;2022-12-11T15:01:35;1.50;99.90
11744;DHT22;5929;51.906;7.674;2022-12-11T15:04:05;1.50;99.90
11744;DHT22;5929;51.906;7.674;2022-12-11T15:06:41;1.50;99.90
11744;DHT22;5929;51.906;7.674;2022-12-11T15:09:16;1.50;99.90
11744;DHT22;5929;51.906;7.674;2022-12-11T15:11:44;1.50;99.90
11744;DHT22;5929;51.906;7.674;2022-12-11T15:14:13;1.50;99.90
11744;DHT22;5929;51.906;7.674;2022-12-11T15:16:41;1.50;99.90
11744;DHT22;5929;51.906;7.674;2022-12-11T15:19:18;1.50;99.90
11744;DHT22;5929;51.906;7.674;2022-12-11T15:21:46;1.60;99.90
11744;DHT22;5929;51.906;7.674;2022-12-11T15:24:29;1.50;99.90
11744;DHT22;5929;51.906;7.674;2022-12-11T15:26:57;1.50;99.90
11744;DHT22;5929;51.906;7.674;2022-12-11T15:29:29;1.50;99.90
11744;DHT22;5929;51.906;7.674;2022-12-11T15:32:03;1.50;99.90
11744;DHT22;5929;51.906;7.674;2022-12-11T15:34:43;1.50;99.90
11744;DHT22;5929;51.906;7.674;2022-12-11T15:37:17;1.40;99.90
11744;DHT22;5929;51.906;7.674;2022-12-11T15:39:46;1.40;99.90
11744;DHT22;5929;51.906;7.674;2022-12-11T15:42:15;1.40;99.90
11744;DHT22;5929;51.906;7.674;2022-12-11T15:44:43;1.40;99.90
11744;DHT22;5929;51.906;7.674;2022-12-11T15:47:11;1.50;99.90
11744;DHT22;5929;51.906;7.674;2022-12-11T15:49:38;1.60;99.90
11744;DHT22;5929;51.906;7.674;2022-12-11T15:52:05;1.50;99.90
11744;DHT22;5929;51.906;7.674;2022-12-11T15:54:32;1.60;99.90
11744;DHT22;5929;51.906;7.674;2022-12-11T15:57:03;1.50;99.90
11744;DHT22;5929;51.906;7.674;2022-12-11T15:59:32;1.50;99.90
11744;DHT22;5929;51.906;7.674;2022-12-11T16:01:59;1.50;99.90
11744;DHT22;5929;51.906;7.674;2022-12-11T16:04:26;1.50;99.90
11744;DHT22;5929;51.906;7.674;2022-12-11T16:06:52;1.50;99.90
11744;DHT22;5929;51.906;7.674;2022-12-11T16:09:19;1.40;99.90
11744;DHT22;5929;51.906;7.674;2022-12-11T16:11:46;1.40;99.90
11744;DHT22;5929;51.906;7.674;2022-12-11T16:14:14;1.40;99.90
11744;DHT22;5929;51.906;7.674;2022-12-11T16:16:41;1.40;99.90
11744;DHT22;5929;51.906;7.674;2022-12-11T16:19:08;1.40;99.90
11744;DHT22;5929;51.906;7.674;2022-12-11T16:21:35;1.40;99.90
11744;DHT22;5929;51.906;7.674;2022-12-11T16:24:02;1.30;99.90
11744;DHT22;5929;51.906;7.674;2022-12-11T16:26:31;1.30;99.90